Time;durP1;ratioP1;P1;durP2;ratioP2;P2;SDS_P1;SDS_P2;PMS_P1;PMS_P2;Temp;Humidity;BMP_temperature;BMP_pressure;BME280_temperature;BME280_humidity;BME280_pressure;Samples;Min_cycle;Max_cycle;Signal;HPM_P1;HPM_P2
2021/05/21 00:00:46;;;;;;;3.05;1.63;;;;;;;14.14;55.19;99023.81;5053575;28;20684;-73
2021/05/21 00:03:12;;;;;;;1.45;1.30;;;;;;;14.19;55.04;99018.00;5053627;28;20190;-73
2021/05/21 00:05:38;;;;;;;1.77;1.38;;;;;;;14.22;55.16;99023.16;5053708;28;20667;-74
2021/05/21 00:08:05;;;;;;;3.67;1.65;;;;;;;14.18;54.94;99024.44;5053367;28;20281;-75
2021/05/21 00:10:31;;;;;;;2.67;1.55;;;;;;;14.20;55.35;99022.47;5053569;28;20535;-73
2021/05/21 00:12:57;;;;;;;3.60;1.63;;;;;;;14.13;55.80;99023.94;5053933;28;20347;-74
2021/05/21 00:15:24;;;;;;;2.70;1.60;;;;;;;14.21;55.29;99016.03;5054190;28;20279;-72
2021/05/21 00:17:50;;;;;;;2.75;1.70;;;;;;;14.24;55.37;99028.47;5053730;28;20556;-73
2021/05/21 00:20:16;;;;;;;2.10;1.83;;;;;;;14.19;55.61;99018.00;5053767;28;20597;-75
2021/05/21 00:22:43;;;;;;;4.47;1.80;;;;;;;14.08;56.04;99020.75;5053665;28;20219;-74
2021/05/21 00:25:09;;;;;;;3.92;1.88;;;;;;;14.07;56.06;99008.22;5053280;28;20284;-75
2021/05/21 00:27:35;;;;;;;2.75;1.77;;;;;;;14.05;56.44;99010.19;5053131;28;20202;-74
2021/05/21 00:30:03;;;;;;;2.00;1.80;;;;;;;13.96;56.80;99011.78;5053328;28;20196;-73
2021/05/21 00:32:30;;;;;;;2.20;1.90;;;;;;;13.92;57.07;99013.88;5053226;28;20229;-74
2021/05/21 00:34:56;;;;;;;3.47;1.92;;;;;;;13.80;56.88;98995.94;5053439;28;20269;-73
2021/05/21 00:37:22;;;;;;;4.00;2.22;;;;;;;13.76;57.41;98994.47;5053243;28;20239;-74
2021/05/21 00:39:49;;;;;;;2.67;1.70;;;;;;;13.75;57.51;98992.75;5053190;28;20338;-73
2021/05/21 00:42:15;;;;;;;1.50;1.23;;;;;;;13.62;57.70;98998.28;5052948;28;20227;-75
2021/05/21 00:44:41;;;;;;;2.05;1.65;;;;;;;13.54;57.99;98988.09;5053685;28;20276;-74
2021/05/21 00:47:07;;;;;;;2.47;1.60;;;;;;;13.54;57.91;98979.09;5053449;28;20301;-73
2021/05/21 00:49:34;;;;;;;1.77;1.67;;;;;;;13.52;57.77;98987.34;5053566;28;20691;-74
2021/05/21 00:52:02;;;;;;;6.20;2.22;;;;;;;13.51;57.70;98985.59;5053456;28;20182;-74
2021/05/21 00:54:29;;;;;;;2.05;1.80;;;;;;;13.41;57.89;98967.53;5054869;28;20336;-73
2021/05/21 00:56:55;;;;;;;2.30;1.17;;;;;;;13.38;58.23;98965.94;5056782;28;20190;-74
2021/05/21 00:59:21;;;;;;;2.05;1.60;;;;;;;13.36;58.02;98965.19;5056549;28;20270;-75
2021/05/21 01:01:48;;;;;;;1.55;1.45;;;;;;;13.41;57.85;98962.13;5056806;28;20270;-71
2021/05/21 01:04:14;;;;;;;2.00;1.58;;;;;;;13.38;57.89;98957.81;5056826;28;20225;-74
2021/05/21 01:06:41;;;;;;;1.65;1.55;;;;;;;13.23;58.27;98959.00;5056946;28;20222;-74
2021/05/21 01:09:07;;;;;;;1.92;1.40;;;;;;;13.24;58.48;98963.44;5056749;28;20201;-74
2021/05/21 01:11:34;;;;;;;2.20;1.63;;;;;;;13.21;58.54;98950.19;5057101;28;20906;-72
2021/05/21 01:14:00;;;;;;;2.58;1.60;;;;;;;13.29;58.28;98955.84;5056699;28;20274;-73
2021/05/21 01:16:26;;;;;;;2.33;1.52;;;;;;;13.26;58.36;98942.56;5056784;28;20269;-73
2021/05/21 01:18:52;;;;;;;2.80;2.00;;;;;;;13.20;58.68;98941.19;5056766;28;20181;-74
2021/05/21 01:21:23;;;;;;;1.80;1.70;;;;;;;13.17;58.82;98937.88;5056281;28;20227;-73
2021/05/21 01:23:49;;;;;;;4.15;1.70;;;;;;;13.20;58.24;98935.78;5056850;28;20198;-73
2021/05/21 01:26:15;;;;;;;3.10;1.80;;;;;;;13.13;58.61;98932.72;5056785;28;20205;-73
2021/05/21 01:28:46;;;;;;;2.33;1.90;;;;;;;13.14;58.46;98926.34;5056740;28;20582;-75
2021/05/21 01:31:12;;;;;;;1.73;1.55;;;;;;;13.08;58.50;98926.81;5056058;28;20244;-73
2021/05/21 01:33:39;;;;;;;2.63;1.67;;;;;;;13.15;58.33;98919.06;5056590;28;20600;-75
2021/05/21 01:36:05;;;;;;;2.15;1.70;;;;;;;12.96;58.88;98914.28;5056583;28;20216;-74
2021/05/21 01:38:32;;;;;;;1.80;1.40;;;;;;;13.05;58.57;98920.81;5056281;28;20746;-72
2021/05/21 01:40:59;;;;;;;3.13;1.50;;;;;;;13.10;58.19;98914.03;5056344;28;20272;-74
2021/05/21 01:43:26;;;;;;;1.52;1.42;;;;;;;13.03;58.33;98917.38;5056451;28;20214;-73
2021/05/21 01:45:52;;;;;;;1.52;1.42;;;;;;;13.05;58.11;98913.56;5056632;28;20655;-74
2021/05/21 01:48:19;;;;;;;1.60;1.50;;;;;;;13.02;58.31;98913.78;5056549;28;20653;-74
2021/05/21 01:50:45;;;;;;;3.08;1.83;;;;;;;12.99;58.36;98908.63;5056307;28;20280;-74
2021/05/21 01:53:11;;;;;;;1.45;1.35;;;;;;;13.06;58.11;98904.44;5056350;28;20286;-73
2021/05/21 01:55:38;;;;;;;2.03;1.70;;;;;;;13.01;58.47;98897.69;5056370;28;20217;-72
2021/05/21 01:58:04;;;;;;;3.60;1.58;;;;;;;12.97;58.36;98898.94;5055994;28;20194;-73
2021/05/21 02:00:31;;;;;;;1.48;1.20;;;;;;;13.01;58.23;98893.16;5055703;28;20289;-73
2021/05/21 02:02:57;;;;;;;2.85;1.65;;;;;;;13.00;58.06;98885.16;5055810;28;20252;-73
2021/05/21 02:05:23;;;;;;;1.95;1.40;;;;;;;12.92;58.15;98883.06;5054512;28;20654;-73
2021/05/21 02:07:49;;;;;;;1.75;1.55;;;;;;;12.90;58.39;98874.22;5055859;28;20212;-73
2021/05/21 02:10:15;;;;;;;3.00;1.80;;;;;;;12.84;58.43;98872.00;5055393;28;20372;-73
2021/05/21 02:12:44;;;;;;;2.25;1.50;;;;;;;12.76;58.66;98875.31;5055930;28;20276;-72
2021/05/21 02:15:12;;;;;;;2.08;1.13;;;;;;;12.84;58.43;98872.00;5056088;28;20239;-74
2021/05/21 02:17:38;;;;;;;2.28;1.13;;;;;;;12.84;57.92;98872.84;5055342;28;20238;-73
2021/05/21 02:20:06;;;;;;;2.30;1.35;;;;;;;12.93;57.72;98863.16;5055650;28;20554;-73
2021/05/21 02:22:33;;;;;;;2.05;1.60;;;;;;;12.84;58.13;98863.91;5055265;28;20243;-74
2021/05/21 02:25:01;;;;;;;2.55;1.45;;;;;;;12.94;57.65;98851.41;5055701;28;20195;-74
2021/05/21 02:27:28;;;;;;;1.60;1.27;;;;;;;12.92;57.81;98847.94;5055067;28;20283;-73
2021/05/21 02:29:55;;;;;;;1.60;1.40;;;;;;;12.90;57.38;98847.22;5055196;28;20202;-72
2021/05/21 02:32:22;;;;;;;2.00;1.40;;;;;;;12.92;57.49;98847.94;5055033;28;20181;-74
2021/05/21 02:34:48;;;;;;;2.47;1.30;;;;;;;12.91;57.36;98839.00;5055596;28;20237;-74
2021/05/21 02:37:14;;;;;;;2.33;1.45;;;;;;;12.75;57.81;98832.22;5054948;28;20234;-73
2021/05/21 02:39:40;;;;;;;1.80;1.25;;;;;;;12.85;57.73;98827.81;5055251;28;20222;-74
2021/05/21 02:42:07;;;;;;;1.80;1.45;;;;;;;12.85;57.43;98825.13;5055499;28;20228;-74
2021/05/21 02:44:34;;;;;;;2.50;2.00;;;;;;;12.97;56.94;98828.66;5055417;28;20270;-73
2021/05/21 02:47:01;;;;;;;2.08;1.35;;;;;;;12.92;57.16;98821.78;5054815;28;20284;-75
2021/05/21 02:49:29;;;;;;;5.82;1.60;;;;;;;12.97;57.09;98824.13;5054849;28;20201;-75
2021/05/21 02:51:55;;;;;;;3.70;1.60;;;;;;;12.87;57.23;98812.34;5054650;28;20224;-73
2021/05/21 02:54:22;;;;;;;5.40;2.13;;;;;;;12.81;57.49;98818.22;5055108;28;20267;-72
2021/05/21 02:56:48;;;;;;;2.80;1.65;;;;;;;12.75;57.68;98811.47;5054935;28;20686;-74
2021/05/21 02:59:14;;;;;;;3.35;1.27;;;;;;;12.73;57.25;98800.81;5055049;28;20632;-73
2021/05/21 03:01:41;;;;;;;1.77;1.67;;;;;;;12.81;57.12;98799.31;5054849;28;20663;-74
2021/05/21 03:04:08;;;;;;;3.03;1.40;;;;;;;12.73;57.45;98794.53;5054844;28;20535;-75
2021/05/21 03:06:35;;;;;;;5.35;1.65;;;;;;;12.72;57.63;98784.72;5054742;28;20370;-75
2021/05/21 03:09:01;;;;;;;3.00;1.67;;;;;;;12.63;57.86;98785.44;5054426;28;20208;-74
2021/05/21 03:11:27;;;;;;;4.60;1.50;;;;;;;12.58;57.69;98780.41;5054593;28;20189;-74
2021/05/21 03:13:53;;;;;;;2.42;1.55;;;;;;;12.60;57.87;98778.44;5054590;28;20261;-73
2021/05/21 03:16:20;;;;;;;1.40;1.20;;;;;;;12.59;57.78;98771.31;5054208;28;20209;-73
2021/05/21 03:18:46;;;;;;;1.52;1.38;;;;;;;12.56;57.53;98771.56;5054376;28;20194;-73
2021/05/21 03:21:13;;;;;;;1.48;1.30;;;;;;;12.64;57.21;98769.13;5054417;28;20276;-73
2021/05/21 03:23:39;;;;;;;1.50;1.30;;;;;;;12.62;57.29;98756.72;5054153;28;20221;-73
2021/05/21 03:26:06;;;;;;;2.20;1.20;;;;;;;12.64;57.00;98746.63;5054610;28;20240;-74
2021/05/21 03:28:32;;;;;;;2.38;1.45;;;;;;;12.77;56.89;98755.47;5054270;28;20224;-75
2021/05/21 03:30:58;;;;;;;2.20;1.90;;;;;;;12.67;57.23;98752.66;5054177;28;20609;-73
2021/05/21 03:33:24;;;;;;;3.30;1.20;;;;;;;12.66;57.11;98753.66;5054371;28;20221;-75
2021/05/21 03:35:50;;;;;;;1.85;1.60;;;;;;;12.66;57.19;98763.59;5054351;28;20189;-75
2021/05/21 03:38:17;;;;;;;4.18;1.95;;;;;;;12.59;57.54;98752.41;5053596;28;20348;-76
2021/05/21 03:40:43;;;;;;;2.38;1.48;;;;;;;12.55;57.71;98758.19;5054206;28;20186;-73
2021/05/21 03:43:10;;;;;;;2.88;1.45;;;;;;;12.50;57.82;98753.16;5053704;28;20248;-74
2021/05/21 03:45:36;;;;;;;2.55;1.55;;;;;;;12.59;57.97;98760.50;5053717;28;20267;-74
2021/05/21 03:48:03;;;;;;;3.90;1.73;;;;;;;12.63;57.96;98762.00;5054431;28;20236;-75
2021/05/21 03:50:30;;;;;;;1.92;1.30;;;;;;;12.76;57.26;98752.91;5053812;28;20186;-74
2021/05/21 03:52:56;;;;;;;1.90;1.40;;;;;;;12.72;57.28;98747.75;5053765;28;20189;-73
2021/05/21 03:55:23;;;;;;;1.90;1.48;;;;;;;12.84;57.11;98743.19;5054407;28;20197;-73
2021/05/21 03:57:49;;;;;;;1.75;1.65;;;;;;;12.79;56.87;98753.50;5053845;28;20218;-74
2021/05/21 04:00:18;;;;;;;3.05;1.65;;;;;;;12.87;56.79;98748.38;5054044;28;20667;-73
2021/05/21 04:02:46;;;;;;;2.22;1.30;;;;;;;12.91;56.87;98746.25;5053487;28;20222;-74
2021/05/21 04:05:12;;;;;;;2.15;1.50;;;;;;;12.89;56.93;98740.13;5054034;28;20211;-72
2021/05/21 04:07:39;;;;;;;1.90;1.20;;;;;;;12.88;57.21;98739.25;5054082;28;20289;-74
2021/05/21 04:10:06;;;;;;;4.35;1.52;;;;;;;13.00;56.85;98748.22;5054306;28;20629;-72
2021/05/21 04:12:33;;;;;;;1.50;1.40;;;;;;;13.04;56.60;98738.00;5053867;28;20268;-74
2021/05/21 04:14:59;;;;;;;4.05;1.75;;;;;;;13.00;56.85;98737.44;5053890;28;20613;-73
2021/05/21 04:17:25;;;;;;;1.90;1.30;;;;;;;12.99;57.07;98726.72;5053196;28;20201;-73
2021/05/21 04:19:52;;;;;;;2.20;1.60;;;;;;;13.00;57.17;98723.91;5053594;28;20295;-74
2021/05/21 04:22:18;;;;;;;1.58;1.48;;;;;;;13.09;56.98;98725.84;5053984;28;20637;-73
2021/05/21 04:24:45;;;;;;;2.80;1.90;;;;;;;13.05;57.08;98732.50;5053191;28;20277;-73
2021/05/21 04:27:12;;;;;;;2.22;1.60;;;;;;;13.14;57.10;98729.03;5053781;28;20222;-73
2021/05/21 04:29:39;;;;;;;1.70;1.55;;;;;;;13.23;56.81;98729.22;5056019;28;20248;-75
2021/05/21 04:32:06;;;;;;;1.50;1.40;;;;;;;13.25;56.72;98721.84;5057374;28;20265;-75
2021/05/21 04:34:32;;;;;;;4.00;1.95;;;;;;;13.28;56.92;98721.66;5057491;28;20221;-74
2021/05/21 04:36:59;;;;;;;3.40;1.67;;;;;;;13.32;56.70;98718.56;5057742;28;20201;-74
2021/05/21 04:39:25;;;;;;;2.40;1.75;;;;;;;13.25;57.05;98719.16;5057099;28;20296;-74
2021/05/21 04:41:51;;;;;;;2.05;1.38;;;;;;;13.32;57.15;98715.00;5057587;28;20233;-73
2021/05/21 04:44:17;;;;;;;1.92;1.33;;;;;;;13.33;56.97;98716.72;5057018;28;20251;-74
2021/05/21 04:46:45;;;;;;;1.65;1.52;;;;;;;13.34;57.18;98718.41;5057218;28;20191;-74
2021/05/21 04:49:11;;;;;;;4.50;2.85;;;;;;;13.36;56.95;98719.16;5057072;28;20238;-73
2021/05/21 04:51:37;;;;;;;6.55;2.22;;;;;;;13.41;57.03;98713.34;5057145;28;20244;-74
2021/05/21 04:54:04;;;;;;;1.85;1.48;;;;;;;13.41;57.01;98708.84;5057228;28;20211;-74
2021/05/21 04:56:31;;;;;;;1.95;1.73;;;;;;;13.43;57.19;98706.88;5057585;28;20615;-74
2021/05/21 04:58:57;;;;;;;3.25;2.15;;;;;;;13.55;56.71;98710.38;5057453;28;20696;-75
2021/05/21 05:01:24;;;;;;;2.42;1.70;;;;;;;13.57;56.93;98703.00;5056972;28;20676;-75
2021/05/21 05:03:51;;;;;;;3.72;2.03;;;;;;;13.67;56.68;98706.63;5056977;28;20593;-75
2021/05/21 05:06:17;;;;;;;2.28;2.00;;;;;;;13.67;56.57;98695.78;5056688;28;20270;-72
2021/05/21 05:08:43;;;;;;;4.05;1.77;;;;;;;13.72;56.53;98684.56;5056844;28;20288;-76
2021/05/21 05:11:09;;;;;;;2.40;2.00;;;;;;;13.72;56.59;98680.03;5057170;28;20224;-73
2021/05/21 05:13:35;;;;;;;2.50;2.10;;;;;;;13.80;56.44;98697.47;5056903;28;20821;-74
2021/05/21 05:16:01;;;;;;;3.38;3.08;;;;;;;13.89;56.50;98685.84;5056154;28;20311;-74
2021/05/21 05:18:27;;;;;;;7.38;1.80;;;;;;;13.93;56.46;98690.88;5057060;28;20191;-72
2021/05/21 05:20:54;;;;;;;2.53;1.70;;;;;;;13.84;56.63;98688.06;5056480;28;20202;-75
2021/05/21 05:23:21;;;;;;;2.90;1.92;;;;;;;13.99;56.12;98673.22;5056832;28;20313;-74
2021/05/21 05:25:47;;;;;;;2.75;2.17;;;;;;;14.12;56.01;98684.69;5056797;28;20587;-76
2021/05/21 05:28:15;;;;;;;3.33;1.80;;;;;;;14.22;55.72;98679.31;5056359;28;20183;-74
2021/05/21 05:30:42;;;;;;;3.50;2.20;;;;;;;14.28;55.79;98680.66;5056519;28;20203;-73
2021/05/21 05:33:08;;;;;;;3.47;1.50;;;;;;;14.35;55.39;98682.66;5056353;28;20185;-73
2021/05/21 05:35:34;;;;;;;2.63;1.90;;;;;;;14.27;55.85;98673.50;5055908;28;20218;-74
2021/05/21 05:38:01;;;;;;;9.43;2.65;;;;;;;14.33;55.81;98679.25;5055847;28;20271;-74
2021/05/21 05:40:28;;;;;;;3.45;1.80;;;;;;;14.43;55.53;98686.56;5055486;28;20265;-74
2021/05/21 05:42:54;;;;;;;3.55;2.40;;;;;;;14.46;55.92;98672.75;5055786;28;20214;-74
2021/05/21 05:45:20;;;;;;;2.03;1.83;;;;;;;14.60;55.46;98664.28;5055782;28;20645;-74
2021/05/21 05:47:46;;;;;;;1.80;1.70;;;;;;;14.74;55.31;98654.91;5055461;28;20254;-74
2021/05/21 05:50:13;;;;;;;2.47;2.20;;;;;;;14.86;54.97;98669.22;5056028;28;20269;-73
2021/05/21 05:52:39;;;;;;;4.28;2.13;;;;;;;14.98;54.79;98679.78;5056197;28;20663;-73
2021/05/21 05:55:08;;;;;;;2.75;1.70;;;;;;;15.04;54.33;98683.81;5054977;28;20196;-75
2021/05/21 05:57:34;;;;;;;2.60;1.90;;;;;;;15.15;54.02;98680.09;5055550;28;20200;-73
2021/05/21 06:00:00;;;;;;;2.75;2.15;;;;;;;15.11;54.38;98678.69;5056020;28;20552;-73
2021/05/21 06:02:26;;;;;;;5.60;2.58;;;;;;;15.17;54.07;98689.81;5055682;28;20203;-73
2021/05/21 06:04:52;;;;;;;3.97;1.90;;;;;;;15.09;54.16;98683.38;5055232;28;20204;-72
2021/05/21 06:07:18;;;;;;;3.88;2.30;;;;;;;14.95;54.56;98688.19;5055175;28;20295;-74
2021/05/21 06:09:44;;;;;;;2.42;1.77;;;;;;;14.97;54.59;98682.66;5055186;28;20188;-73
2021/05/21 06:12:12;;;;;;;1.65;1.45;;;;;;;15.15;54.21;98675.53;5054809;28;20184;-75
2021/05/21 06:14:38;;;;;;;4.15;1.88;;;;;;;15.12;54.22;98678.53;5054807;28;20302;-74
2021/05/21 06:17:04;;;;;;;2.50;2.15;;;;;;;14.99;54.56;98692.34;5054571;28;20292;-74
2021/05/21 06:19:30;;;;;;;3.83;1.60;;;;;;;15.14;54.14;98690.09;5055436;28;20204;-75
2021/05/21 06:21:56;;;;;;;3.70;1.92;;;;;;;15.09;54.47;98692.38;5054882;28;20219;-74
2021/05/21 06:24:23;;;;;;;2.20;1.40;;;;;;;15.00;54.89;98683.22;5054336;28;20193;-74
2021/05/21 06:29:30;;;;;;;3.03;2.75;;;;;;;15.27;53.93;98686.25;5054640;28;20201;-73
2021/05/21 06:31:57;;;;;;;4.55;1.95;;;;;;;15.38;54.02;98686.97;5054924;28;20204;-73
2021/05/21 06:34:23;;;;;;;3.40;1.50;;;;;;;15.18;54.46;98679.81;5054662;28;20281;-75
2021/05/21 06:36:50;;;;;;;3.60;2.67;;;;;;;15.28;54.63;98693.38;5054684;28;20299;-75
2021/05/21 06:39:16;;;;;;;8.05;1.90;;;;;;;15.18;55.21;98696.09;5054429;28;20244;-73
2021/05/21 06:41:42;;;;;;;3.90;1.60;;;;;;;14.87;56.05;98698.03;5054209;28;20212;-74
2021/05/21 06:44:08;;;;;;;2.67;2.10;;;;;;;14.95;56.00;98693.63;5054526;28;20673;-73
2021/05/21 06:46:35;;;;;;;1.63;1.50;;;;;;;14.97;56.28;98688.06;5054350;28;20238;-74
2021/05/21 06:49:01;;;;;;;2.67;1.60;;;;;;;15.09;56.10;98683.38;5054443;28;20619;-73
2021/05/21 06:51:28;;;;;;;6.80;1.80;;;;;;;15.04;56.32;98691.94;5053023;28;20291;-74
2021/05/21 06:53:54;;;;;;;6.28;1.65;;;;;;;14.94;56.96;98701.88;5054185;28;20629;-73
2021/05/21 06:56:20;;;;;;;3.90;2.03;;;;;;;14.92;57.24;98699.31;5054105;28;20212;-74
2021/05/21 06:58:46;;;;;;;6.60;2.60;;;;;;;14.69;58.20;98708.66;5053392;28;20321;-74
2021/05/21 07:01:12;;;;;;;11.40;1.73;;;;;;;14.64;58.88;98706.34;5053941;28;20250;-74
2021/05/21 07:03:39;;;;;;;4.55;1.83;;;;;;;14.56;59.30;98711.59;5053518;28;20219;-74
2021/05/21 07:06:06;;;;;;;4.45;1.65;;;;;;;14.49;59.94;98711.25;5054102;28;20187;-73
2021/05/21 07:08:32;;;;;;;4.47;1.75;;;;;;;14.56;60.00;98719.72;5054427;28;20214;-73
2021/05/21 07:10:58;;;;;;;2.92;1.60;;;;;;;14.60;60.08;98715.75;5053563;28;20195;-73
2021/05/21 07:13:26;;;;;;;2.83;1.77;;;;;;;14.65;60.09;98713.47;5053600;28;20188;-74
2021/05/21 07:15:53;;;;;;;3.63;2.17;;;;;;;14.65;60.22;98707.22;5034254;28;20183;-74
2021/05/21 07:18:19;;;;;;;3.42;1.60;;;;;;;14.58;60.48;98715.03;5033814;28;20255;-74
2021/05/21 07:20:47;;;;;;;5.85;2.40;;;;;;;14.62;60.39;98721.88;5033708;28;20270;-75
2021/05/21 07:23:13;;;;;;;3.45;1.90;;;;;;;14.60;60.62;98719.31;5033567;28;20234;-73
2021/05/21 07:25:39;;;;;;;3.05;1.80;;;;;;;14.61;60.58;98725.59;5045389;28;20287;-74
2021/05/21 07:28:06;;;;;;;5.65;1.98;;;;;;;14.41;61.70;98719.19;5053479;28;20616;-74
2021/05/21 07:30:32;;;;;;;3.55;1.98;;;;;;;14.45;61.71;98719.78;5053489;28;20207;-74
2021/05/21 07:32:59;;;;;;;4.97;2.17;;;;;;;14.44;62.13;98729.75;5053758;28;20186;-74
2021/05/21 07:35:25;;;;;;;3.65;1.80;;;;;;;14.37;62.45;98715.03;5053552;28;20179;-74
2021/05/21 07:37:52;;;;;;;3.20;1.60;;;;;;;14.47;62.47;98720.50;5053542;28;20217;-73
2021/05/21 07:40:19;;;;;;;5.68;2.55;;;;;;;14.77;61.28;98723.25;5053022;28;20223;-75
2021/05/21 07:42:46;;;;;;;9.88;2.45;;;;;;;14.62;61.43;98721.88;5053204;28;20216;-74
2021/05/21 07:45:13;;;;;;;4.07;1.80;;;;;;;14.98;60.47;98717.72;5052842;28;20202;-75
2021/05/21 07:47:39;;;;;;;6.55;2.38;;;;;;;14.91;60.60;98708.44;5053433;28;20209;-73
2021/05/21 07:50:06;;;;;;;4.47;2.00;;;;;;;15.00;60.28;98702.19;5053100;28;20297;-73
2021/05/21 07:52:32;;;;;;;4.60;2.75;;;;;;;15.21;59.46;98707.50;5052992;28;20188;-73
2021/05/21 07:55:01;;;;;;;6.70;4.38;;;;;;;15.35;59.31;98716.22;5053448;28;20218;-72
2021/05/21 07:57:27;;;;;;;6.32;2.22;;;;;;;15.51;58.41;98694.84;5053312;28;20208;-74
2021/05/21 07:59:53;;;;;;;6.00;2.05;;;;;;;15.51;58.29;98691.25;5053068;28;20194;-74
2021/05/21 08:02:20;;;;;;;3.83;2.17;;;;;;;15.22;58.97;98709.22;5052820;28;20255;-74
2021/05/21 08:04:46;;;;;;;6.05;2.25;;;;;;;15.12;59.23;98712.91;5053072;28;20194;-73
2021/05/21 08:07:12;;;;;;;13.45;3.05;;;;;;;15.00;59.43;98709.47;5052901;28;20200;-74
2021/05/21 08:09:40;;;;;;;5.32;2.65;;;;;;;15.32;58.70;98709.22;5053105;28;20187;-74
2021/05/21 08:12:10;;;;;;;7.00;2.38;;;;;;;15.57;57.15;98701.53;5052761;28;20194;-74
2021/05/21 08:14:36;;;;;;;7.60;2.42;;;;;;;15.41;57.74;98724.66;5052996;28;20204;-73
2021/05/21 08:17:02;;;;;;;6.22;2.72;;;;;;;15.44;57.92;98718.09;5052971;28;20217;-75
2021/05/21 08:19:29;;;;;;;5.75;1.90;;;;;;;15.44;58.03;98718.09;5052906;28;20219;-73
2021/05/21 08:21:55;;;;;;;5.50;2.13;;;;;;;15.54;57.91;98708.13;5052667;28;20231;-74
2021/05/21 08:24:21;;;;;;;8.60;2.83;;;;;;;15.51;57.79;98724.69;5053044;28;20547;-74
2021/05/21 08:26:47;;;;;;;7.75;2.70;;;;;;;15.50;56.93;98728.38;5052877;28;20207;-74
2021/05/21 08:29:14;;;;;;;6.60;2.88;;;;;;;15.83;56.30;98707.28;5053062;28;20208;-72
2021/05/21 08:31:40;;;;;;;6.43;2.88;;;;;;;15.93;55.74;98701.84;5052930;28;20678;-74
2021/05/21 08:34:07;;;;;;;4.18;2.00;;;;;;;16.08;55.53;98711.25;5052571;28;20609;-73
2021/05/21 08:36:33;;;;;;;8.18;2.38;;;;;;;16.21;54.52;98705.50;5052781;28;20255;-73
2021/05/21 08:38:59;;;;;;;4.07;2.30;;;;;;;16.09;54.26;98706.66;5052607;28;20236;-73
2021/05/21 08:41:27;;;;;;;5.45;2.33;;;;;;;16.03;54.86;98705.38;5052921;28;20221;-73
2021/05/21 08:43:55;;;;;;;7.38;2.53;;;;;;;16.32;54.16;98704.47;5052560;28;20220;-73
2021/05/21 08:46:25;;;;;;;7.45;1.98;;;;;;;15.98;54.18;98700.38;5052858;28;20299;-72
2021/05/21 08:48:57;;;;;;;6.20;3.33;;;;;;;16.29;53.68;98686.59;5053229;28;20201;-72
2021/05/21 08:51:23;;;;;;;8.13;2.40;;;;;;;16.33;53.38;98674.44;5052726;28;20201;-72
2021/05/21 08:53:50;;;;;;;5.15;2.67;;;;;;;16.56;53.03;98707.53;5052722;28;20549;-73
2021/05/21 08:56:16;;;;;;;3.47;2.40;;;;;;;16.12;53.48;98693.63;5052847;28;20204;-73
2021/05/21 08:58:43;;;;;;;7.68;2.67;;;;;;;16.21;52.32;98702.78;5052930;28;20186;-73
2021/05/21 09:01:10;;;;;;;6.43;2.55;;;;;;;16.11;52.57;98707.38;5052886;28;20297;-73
2021/05/21 09:03:37;;;;;;;9.45;2.70;;;;;;;16.62;51.36;98697.91;5052438;28;20252;-74
2021/05/21 09:06:15;;;;;;;4.10;1.83;;;;;;;16.65;51.90;98703.06;5052601;28;20209;-72
2021/05/21 09:08:44;;;;;;;6.78;2.35;;;;;;;17.23;50.13;98697.34;5052536;28;20239;-73
2021/05/21 09:11:40;;;;;;;7.63;2.58;;;;;;;17.49;49.41;98702.88;5052640;28;20225;-73
2021/05/21 09:14:08;;;;;;;5.22;2.13;;;;;;;17.43;48.72;98708.06;5052131;28;20201;-73
2021/05/21 09:16:35;;;;;;;5.70;2.67;;;;;;;17.36;48.76;98712.44;5056216;28;20196;-73
2021/05/21 09:19:05;;;;;;;7.10;2.30;;;;;;;17.39;48.65;98710.28;5056899;28;20651;-73
2021/05/21 09:21:54;;;;;;;4.18;2.08;;;;;;;17.42;48.58;98698.22;5056446;28;20181;-73
2021/05/21 09:24:23;;;;;;;5.60;2.03;;;;;;;17.79;48.03;98692.59;5056433;28;20186;-73
2021/05/21 09:26:50;;;;;;;4.35;1.95;;;;;;;18.12;46.96;98685.56;5056128;28;20285;-73
2021/05/21 09:29:19;;;;;;;4.05;2.20;;;;;;;17.61;47.52;98679.00;5056641;28;20195;-73
2021/05/21 09:31:47;;;;;;;5.03;1.98;;;;;;;17.30;47.62;98686.72;5056113;28;20654;-74
2021/05/21 09:34:24;;;;;;;4.75;1.92;;;;;;;17.26;48.52;98697.03;5057068;28;20603;-73
2021/05/21 09:36:52;;;;;;;7.15;2.30;;;;;;;17.66;47.29;98689.41;5056374;28;20185;-73
2021/05/21 09:39:19;;;;;;;3.85;2.00;;;;;;;17.70;45.57;98708.03;5056064;28;20712;-73
2021/05/21 09:41:48;;;;;;;8.18;2.50;;;;;;;17.59;45.34;98682.88;5056264;28;20189;-74
2021/05/21 09:44:14;;;;;;;3.58;1.70;;;;;;;17.04;46.28;98692.03;5055683;28;20205;-72
2021/05/21 09:46:42;;;;;;;5.03;2.30;;;;;;;17.39;46.18;98693.06;5056041;28;20274;-73
2021/05/21 09:49:30;;;;;;;4.80;1.90;;;;;;;17.66;45.30;98682.13;5056264;28;20228;-72
2021/05/21 09:51:58;;;;;;;6.63;2.00;;;;;;;18.35;44.27;98687.75;5055632;28;20209;-72
2021/05/21 09:54:25;;;;;;;4.95;1.73;;;;;;;17.61;45.58;98687.16;5056197;28;20209;-72
2021/05/21 09:57:02;;;;;;;5.68;2.35;;;;;;;18.12;45.13;98682.84;5055669;28;20183;-71
2021/05/21 09:59:42;;;;;;;4.25;1.92;;;;;;;18.22;43.16;98684.59;5055652;28;20698;-73
2021/05/21 10:02:23;;;;;;;5.60;2.40;;;;;;;17.74;44.18;98696.81;5056398;28;20255;-73
2021/05/21 10:04:50;;;;;;;6.88;2.25;;;;;;;17.47;44.35;98704.88;5056144;28;20257;-75
2021/05/21 10:07:17;;;;;;;5.75;2.30;;;;;;;17.61;43.96;98718.97;5055275;28;20221;-72
2021/05/21 10:09:43;;;;;;;4.65;1.90;;;;;;;17.53;44.45;98691.69;5055103;28;20201;-73
2021/05/21 10:12:10;;;;;;;5.65;2.28;;;;;;;17.54;44.76;98694.25;5055771;28;20604;-72
2021/05/21 10:14:37;;;;;;;4.22;1.95;;;;;;;17.70;44.34;98699.84;5055618;28;20185;-74
2021/05/21 10:17:06;;;;;;;4.40;2.03;;;;;;;17.81;44.22;98684.28;5055368;28;20296;-73
2021/05/21 10:19:33;;;;;;;3.78;2.10;;;;;;;18.15;43.36;98700.72;5055830;28;20224;-74
2021/05/21 10:22:01;;;;;;;6.25;2.30;;;;;;;18.51;41.99;98704.19;5054890;28;20201;-72
2021/05/21 10:24:32;;;;;;;5.07;1.90;;;;;;;18.15;42.53;98681.66;5055127;28;20209;-72
2021/05/21 10:27:01;;;;;;;3.60;2.17;;;;;;;18.09;42.24;98677.72;5054030;28;20215;-73
2021/05/21 10:29:31;;;;;;;3.45;2.33;;;;;;;18.04;41.85;98690.09;5055141;28;20222;-73
2021/05/21 10:32:11;;;;;;;4.53;1.85;;;;;;;17.37;43.47;98686.94;5055216;28;20186;-74
2021/05/21 10:34:42;;;;;;;4.53;1.92;;;;;;;17.06;43.84;98679.13;5054657;28;20188;-73
2021/05/21 10:37:28;;;;;;;6.63;2.25;;;;;;;17.14;44.14;98681.06;5054820;28;20185;-74
2021/05/21 10:39:59;;;;;;;5.72;1.88;;;;;;;17.45;43.73;98693.31;5054543;28;20323;-73
2021/05/21 10:42:26;;;;;;;8.05;3.78;;;;;;;17.47;43.75;98699.44;5054908;28;20587;-72
2021/05/21 10:44:54;;;;;;;5.05;2.22;;;;;;;17.51;43.32;98683.69;5054983;28;20197;-73
2021/05/21 10:47:23;;;;;;;4.15;1.90;;;;;;;17.61;43.46;98684.44;5054692;28;20263;-72
2021/05/21 10:50:16;;;;;;;7.65;2.20;;;;;;;17.49;43.97;98681.09;5055081;28;20628;-73
2021/05/21 10:52:58;;;;;;;4.80;2.17;;;;;;;17.78;43.42;98690.88;5054472;28;20212;-73
2021/05/21 10:55:52;;;;;;;8.07;1.92;;;;;;;18.09;43.25;98688.63;5055075;28;20709;-73
2021/05/21 10:58:43;;;;;;;4.63;1.55;;;;;;;17.96;43.22;98692.78;5040306;28;20244;-72
2021/05/21 11:01:25;;;;;;;6.38;2.33;;;;;;;17.93;43.47;98691.19;5054701;28;20225;-74
2021/05/21 11:04:19;;;;;;;4.70;2.33;;;;;;;18.44;42.97;98689.50;5054396;28;20289;-73
2021/05/21 11:06:48;;;;;;;6.65;1.95;;;;;;;18.23;43.46;98691.78;5055048;28;20256;-73
2021/05/21 11:09:18;;;;;;;3.40;1.90;;;;;;;18.31;43.56;98703.56;5053652;28;20396;-73
2021/05/21 11:12:04;;;;;;;3.92;1.92;;;;;;;18.48;43.07;98693.63;5053896;28;20226;-72
2021/05/21 11:14:32;;;;;;;6.05;2.28;;;;;;;18.57;42.67;98696.41;5034605;28;20195;-73
2021/05/21 11:17:07;;;;;;;2.67;1.92;;;;;;;17.81;43.51;98696.03;5034323;28;20297;-73
2021/05/21 11:19:33;;;;;;;5.93;2.58;;;;;;;17.82;44.03;98670.53;5040932;28;20324;-74
2021/05/21 11:22:11;;;;;;;4.40;2.20;;;;;;;18.25;43.63;98678.84;5053954;28;20200;-74
2021/05/21 11:24:41;;;;;;;5.00;2.03;;;;;;;18.37;43.07;98683.00;5054026;28;20267;-72
2021/05/21 11:27:11;;;;;;;3.38;1.98;;;;;;;18.31;43.25;98670.88;5054190;28;20205;-74
2021/05/21 11:29:41;;;;;;;4.65;1.75;;;;;;;18.10;43.69;98684.03;5053948;28;20185;-73
2021/05/21 11:32:08;;;;;;;6.40;2.42;;;;;;;17.65;45.14;98693.16;5053434;28;20214;-72
2021/05/21 11:34:34;;;;;;;4.00;1.90;;;;;;;17.62;45.67;98697.03;5053490;28;20256;-73
2021/05/21 11:37:02;;;;;;;9.15;3.15;;;;;;;17.79;45.74;98672.69;5053704;28;20224;-72
2021/05/21 11:39:28;;;;;;;7.25;2.38;;;;;;;18.37;44.52;98693.91;5054571;28;20231;-73